createdAt,value
2023-04-26T00:00:48.894Z,100.00
2023-04-26T00:03:16.116Z,100.00
2023-04-26T00:05:43.505Z,100.00
2023-04-26T00:08:10.652Z,100.00
2023-04-26T00:10:37.465Z,100.00
2023-04-26T00:13:04.520Z,100.00
2023-04-26T00:15:32.184Z,100.00
2023-04-26T00:17:59.321Z,100.00
2023-04-26T00:20:26.178Z,100.00
2023-04-26T00:22:53.274Z,100.00
2023-04-26T00:25:20.075Z,100.00
2023-04-26T00:27:47.100Z,100.00
2023-04-26T00:30:14.412Z,100.00
2023-04-26T00:32:41.467Z,100.00
2023-04-26T00:35:09.070Z,100.00
2023-04-26T00:37:36.216Z,100.00
2023-04-26T00:40:03.263Z,100.00
2023-04-26T00:42:30.402Z,100.00
2023-04-26T00:44:57.788Z,100.00
2023-04-26T00:47:25.990Z,100.00
2023-04-26T00:49:53.254Z,100.00
2023-04-26T00:52:20.454Z,100.00
2023-04-26T00:54:49.217Z,100.00
2023-04-26T00:57:16.337Z,100.00
2023-04-26T00:59:43.132Z,100.00
2023-04-26T01:02:10.242Z,100.00
2023-04-26T01:04:37.733Z,100.00
2023-04-26T01:07:05.481Z,100.00
2023-04-26T01:09:32.976Z,100.00
2023-04-26T01:12:01.139Z,100.00
2023-04-26T01:14:28.905Z,100.00
2023-04-26T01:16:57.635Z,100.00
2023-04-26T01:19:25.629Z,100.00
2023-04-26T01:21:52.821Z,100.00
2023-04-26T01:24:19.617Z,100.00
2023-04-26T01:26:46.896Z,100.00
2023-04-26T01:29:19.858Z,100.00
2023-04-26T01:31:48.036Z,100.00
2023-04-26T01:34:15.197Z,100.00
2023-04-26T01:36:42.642Z,100.00
2023-04-26T01:39:09.669Z,100.00
2023-04-26T01:41:36.852Z,100.00
2023-04-26T01:44:03.947Z,100.00
2023-04-26T01:46:31.047Z,100.00
2023-04-26T01:48:57.927Z,100.00
2023-04-26T01:51:25.002Z,100.00
2023-04-26T01:53:51.796Z,100.00
2023-04-26T01:56:19.905Z,100.00
2023-04-26T01:58:46.767Z,100.00
2023-04-26T02:01:13.871Z,100.00
2023-04-26T02:03:40.852Z,100.00
2023-04-26T02:06:08.177Z,100.00
2023-04-26T02:08:36.599Z,100.00
2023-04-26T02:11:03.759Z,100.00
2023-04-26T02:13:31.186Z,100.00
2023-04-26T02:15:59.379Z,100.00
2023-04-26T02:18:26.820Z,100.00
2023-04-26T02:20:53.931Z,100.00
2023-04-26T02:23:20.798Z,100.00
2023-04-26T02:25:48.869Z,100.00
2023-04-26T02:28:18.808Z,100.00
2023-04-26T02:30:45.870Z,100.00
2023-04-26T02:33:12.677Z,100.00
2023-04-26T02:35:39.751Z,100.00
2023-04-26T02:38:07.389Z,100.00
2023-04-26T02:40:34.451Z,100.00
2023-04-26T02:43:01.641Z,100.00
2023-04-26T02:45:28.754Z,100.00
2023-04-26T02:47:55.749Z,100.00
2023-04-26T02:50:23.269Z,100.00
2023-04-26T02:52:50.075Z,100.00
2023-04-26T02:55:17.411Z,100.00
2023-04-26T02:57:44.272Z,100.00
2023-04-26T03:00:14.106Z,100.00
2023-04-26T03:02:41.377Z,100.00
2023-04-26T03:05:09.654Z,100.00
2023-04-26T03:07:37.056Z,100.00
2023-04-26T03:10:05.210Z,100.00
2023-04-26T03:12:32.029Z,100.00
2023-04-26T03:14:59.144Z,100.00
2023-04-26T03:17:26.027Z,100.00
2023-04-26T03:19:53.094Z,100.00
2023-04-26T03:22:19.844Z,100.00
2023-04-26T03:24:47.689Z,100.00
2023-04-26T03:27:14.520Z,100.00
2023-04-26T03:29:43.887Z,100.00
2023-04-26T03:32:11.174Z,100.00
2023-04-26T03:34:38.370Z,100.00
2023-04-26T03:37:05.232Z,100.00
2023-04-26T03:39:32.322Z,100.00
2023-04-26T03:41:59.180Z,100.00
2023-04-26T03:44:26.310Z,100.00
2023-04-26T03:46:53.510Z,100.00
2023-04-26T03:49:21.168Z,100.00
2023-04-26T03:51:47.997Z,100.00
2023-04-26T03:54:16.232Z,100.00
2023-04-26T03:56:43.019Z,100.00
2023-04-26T03:59:10.190Z,100.00
2023-04-26T04:01:37.207Z,100.00
2023-04-26T04:04:04.565Z,100.00
2023-04-26T04:06:32.833Z,100.00
2023-04-26T04:08:59.898Z,100.00
2023-04-26T04:11:26.951Z,100.00
2023-04-26T04:13:53.981Z,100.00
2023-04-26T04:16:26.736Z,100.00
2023-04-26T04:18:56.654Z,100.00
2023-04-26T04:21:23.405Z,100.00
2023-04-26T04:23:50.468Z,100.00
2023-04-26T04:26:17.582Z,100.00
2023-04-26T04:28:45.724Z,99.19
2023-04-26T04:31:13.126Z,100.00
2023-04-26T04:33:40.410Z,99.83
2023-04-26T04:36:08.329Z,98.57
2023-04-26T04:38:36.114Z,97.48
2023-04-26T04:41:02.944Z,98.11
2023-04-26T04:43:30.093Z,96.29
2023-04-26T04:45:56.865Z,95.15
2023-04-26T04:48:23.898Z,94.89
2023-04-26T04:50:50.849Z,95.00
2023-04-26T04:53:17.994Z,95.13
2023-04-26T04:55:44.946Z,94.65
2023-04-26T04:58:12.365Z,95.35
2023-04-26T05:00:39.107Z,96.12
2023-04-26T05:03:08.643Z,97.14
2023-04-26T05:05:35.771Z,98.62
2023-04-26T05:08:02.882Z,99.76
2023-04-26T05:10:29.647Z,99.17
2023-04-26T05:12:56.881Z,99.03
2023-04-26T05:15:24.037Z,98.75
2023-04-26T05:17:51.651Z,98.17
2023-04-26T05:20:18.508Z,98.26
2023-04-26T05:22:46.820Z,98.26
2023-04-26T05:25:14.113Z,98.14
2023-04-26T05:27:41.254Z,98.10
2023-04-26T05:30:08.652Z,96.56
2023-04-26T05:32:35.818Z,95.84
2023-04-26T05:35:02.775Z,94.26
2023-04-26T05:37:29.953Z,94.08
2023-04-26T05:39:56.752Z,94.17
2023-04-26T05:42:23.804Z,91.41
2023-04-26T05:44:50.672Z,94.27
2023-04-26T05:47:17.809Z,90.86
2023-04-26T05:49:44.587Z,89.13
2023-04-26T05:52:11.704Z,87.63
2023-04-26T05:54:38.509Z,86.86
2023-04-26T05:57:08.476Z,86.03
2023-04-26T05:59:38.053Z,85.46
2023-04-26T06:02:05.386Z,84.06
2023-04-26T06:04:32.794Z,82.82
2023-04-26T06:07:00.569Z,82.78
2023-04-26T06:09:27.436Z,81.58
2023-04-26T06:11:54.600Z,82.34
2023-04-26T06:14:30.000Z,81.27
2023-04-26T06:16:58.140Z,80.81
2023-04-26T06:19:25.108Z,80.72
2023-04-26T06:21:54.921Z,79.68
2023-04-26T06:24:23.208Z,78.44
2023-04-26T06:26:50.332Z,78.72
2023-04-26T06:29:17.330Z,78.42
2023-04-26T06:31:44.513Z,77.02
2023-04-26T06:34:11.434Z,77.31
2023-04-26T06:36:38.487Z,74.38
2023-04-26T06:39:05.272Z,73.15
2023-04-26T06:41:32.370Z,72.66
2023-04-26T06:43:59.209Z,73.38
2023-04-26T06:46:29.246Z,72.49
2023-04-26T06:48:56.264Z,70.68
2023-04-26T06:51:23.414Z,69.83
2023-04-26T06:53:53.209Z,69.26
2023-04-26T06:56:20.748Z,67.23
2023-04-26T06:59:02.651Z,67.37
2023-04-26T07:01:33.864Z,67.37
2023-04-26T07:04:07.870Z,66.44
2023-04-26T07:06:35.896Z,60.15
2023-04-26T07:09:03.287Z,58.76
2023-04-26T07:11:31.560Z,58.02
2023-04-26T07:13:58.390Z,55.40
2023-04-26T07:16:27.051Z,56.04
2023-04-26T07:18:58.108Z,55.99
2023-04-26T07:21:26.775Z,57.04
2023-04-26T07:23:55.692Z,55.00
2023-04-26T07:26:23.460Z,53.48
2023-04-26T07:28:53.897Z,52.86
2023-04-26T07:31:21.555Z,53.59
2023-04-26T07:33:49.043Z,52.71
2023-04-26T07:36:16.228Z,51.73
2023-04-26T07:38:43.062Z,50.40
2023-04-26T07:41:10.320Z,50.26
2023-04-26T07:43:37.839Z,50.79
2023-04-26T07:46:05.082Z,50.18
2023-04-26T07:48:32.046Z,49.75
2023-04-26T07:51:08.096Z,50.30
2023-04-26T07:53:35.419Z,47.94
2023-04-26T07:56:06.052Z,49.67
2023-04-26T07:58:33.093Z,49.92
2023-04-26T08:01:00.897Z,48.26
2023-04-26T08:03:28.486Z,48.42
2023-04-26T08:05:56.057Z,48.25
2023-04-26T08:08:23.171Z,49.79
2023-04-26T08:10:50.783Z,47.94
2023-04-26T08:13:17.597Z,48.41
2023-04-26T08:15:44.797Z,45.96
2023-04-26T08:18:11.774Z,48.17
2023-04-26T08:20:39.365Z,46.94
2023-04-26T08:23:06.192Z,48.55
2023-04-26T08:25:34.954Z,46.41
2023-04-26T08:28:02.407Z,47.18
2023-04-26T08:30:29.672Z,46.26
2023-04-26T08:32:56.785Z,46.71
2023-04-26T08:35:23.939Z,46.92
2023-04-26T08:37:51.844Z,45.03
2023-04-26T08:40:23.857Z,45.73
2023-04-26T08:42:52.708Z,46.50
2023-04-26T08:45:21.102Z,47.00
2023-04-26T08:47:53.645Z,47.60
2023-04-26T08:50:22.728Z,45.21
2023-04-26T08:52:51.544Z,46.23
2023-04-26T08:55:22.582Z,46.22
2023-04-26T08:57:50.877Z,42.57
2023-04-26T09:00:19.428Z,43.81
2023-04-26T09:02:48.716Z,44.18
2023-04-26T09:05:16.162Z,45.32
2023-04-26T09:07:45.462Z,43.01
2023-04-26T09:10:13.694Z,42.43
2023-04-26T09:12:41.662Z,42.86
2023-04-26T09:15:09.462Z,43.38
2023-04-26T09:17:38.568Z,41.35
2023-04-26T09:20:29.326Z,42.42
2023-04-26T09:23:07.158Z,41.37
2023-04-26T09:25:37.753Z,41.49
2023-04-26T09:28:18.505Z,40.52
2023-04-26T09:30:45.739Z,40.75
2023-04-26T09:33:12.685Z,41.84
2023-04-26T09:35:41.420Z,41.52
2023-04-26T09:38:18.698Z,40.25
2023-04-26T09:40:48.125Z,41.15
2023-04-26T09:43:22.059Z,38.90
2023-04-26T09:45:56.243Z,39.98
2023-04-26T09:48:31.438Z,38.97
2023-04-26T09:51:09.131Z,38.58
2023-04-26T09:53:38.762Z,39.96
2023-04-26T09:56:08.783Z,38.58
2023-04-26T09:59:02.245Z,39.28
2023-04-26T10:01:30.414Z,39.24
2023-04-26T10:04:00.895Z,38.03
2023-04-26T10:06:28.516Z,37.81
2023-04-26T10:08:56.134Z,36.74
2023-04-26T10:11:24.697Z,37.56
2023-04-26T10:13:51.901Z,38.66
2023-04-26T10:16:21.322Z,38.84
2023-04-26T10:18:49.368Z,37.97
2023-04-26T10:21:22.687Z,39.87
2023-04-26T10:23:50.024Z,37.37
2023-04-26T10:26:53.126Z,36.66
2023-04-26T10:29:46.193Z,38.17
2023-04-26T10:32:17.320Z,38.76
2023-04-26T10:34:44.457Z,37.00
2023-04-26T10:37:13.666Z,36.72
2023-04-26T10:39:42.411Z,37.28
2023-04-26T10:42:26.602Z,36.93
2023-04-26T10:45:00.567Z,36.91
2023-04-26T10:47:32.347Z,37.30
2023-04-26T10:50:05.851Z,33.86
2023-04-26T10:52:34.022Z,33.23
2023-04-26T10:55:02.491Z,35.00
2023-04-26T10:57:50.615Z,33.72
2023-04-26T11:00:31.356Z,34.49
2023-04-26T11:03:08.892Z,34.36
2023-04-26T11:06:06.052Z,33.50
2023-04-26T11:08:34.368Z,35.95
2023-04-26T11:11:12.190Z,35.32
2023-04-26T11:13:43.470Z,35.94
2023-04-26T11:16:15.265Z,36.76
2023-04-26T11:18:46.565Z,33.82
2023-04-26T11:21:17.667Z,34.55
2023-04-26T11:23:55.097Z,33.80
2023-04-26T11:26:22.126Z,33.69
2023-04-26T11:28:49.316Z,34.25
2023-04-26T11:31:18.741Z,36.20
2023-04-26T11:33:46.457Z,37.49
2023-04-26T11:36:14.776Z,38.32
2023-04-26T11:38:41.980Z,38.89
2023-04-26T11:41:10.503Z,37.40
2023-04-26T11:43:39.069Z,37.27
2023-04-26T11:46:07.495Z,38.98
2023-04-26T11:48:36.725Z,37.01
2023-04-26T11:51:05.056Z,38.26
2023-04-26T11:53:42.597Z,37.10
2023-04-26T11:56:19.806Z,38.09
2023-04-26T11:58:52.766Z,38.54
2023-04-26T12:01:22.061Z,38.12
2023-04-26T12:03:53.907Z,36.54
2023-04-26T12:06:29.250Z,37.49
2023-04-26T12:08:57.086Z,37.52
2023-04-26T12:11:23.911Z,37.03
2023-04-26T12:13:51.077Z,36.47
2023-04-26T12:16:26.433Z,36.88
2023-04-26T12:18:55.296Z,36.14
2023-04-26T12:21:22.475Z,34.34
2023-04-26T12:23:49.912Z,35.92
2023-04-26T12:26:17.090Z,36.33
2023-04-26T12:28:44.352Z,36.34
2023-04-26T12:31:11.980Z,35.63
2023-04-26T12:33:39.231Z,35.46
2023-04-26T12:36:11.389Z,35.55
2023-04-26T12:38:40.331Z,36.13
2023-04-26T12:41:07.289Z,36.28
2023-04-26T12:43:34.487Z,35.23
2023-04-26T12:46:01.713Z,33.24
2023-04-26T12:48:29.038Z,32.16
2023-04-26T12:50:56.116Z,31.92
2023-04-26T12:53:23.207Z,34.93
2023-04-26T12:55:50.033Z,35.43
2023-04-26T12:58:17.173Z,36.63
2023-04-26T13:00:44.784Z,36.11
2023-04-26T13:03:14.804Z,34.63
2023-04-26T13:05:42.147Z,33.39
2023-04-26T13:08:09.261Z,32.27
2023-04-26T13:10:36.033Z,32.15
2023-04-26T13:13:03.362Z,34.06
2023-04-26T13:15:30.269Z,33.90
2023-04-26T13:17:57.411Z,34.67
2023-04-26T13:20:25.983Z,34.03
2023-04-26T13:22:54.321Z,34.46
2023-04-26T13:25:21.449Z,34.60
2023-04-26T13:27:48.514Z,34.40
2023-04-26T13:30:15.463Z,33.00
2023-04-26T13:32:42.870Z,32.64
2023-04-26T13:35:09.996Z,34.05
2023-04-26T13:37:37.121Z,30.28
2023-04-26T13:40:04.908Z,29.86
2023-04-26T13:42:32.612Z,29.67
2023-04-26T13:45:00.214Z,30.02
2023-04-26T13:47:28.057Z,31.13
2023-04-26T13:49:54.853Z,34.16
2023-04-26T13:52:22.213Z,34.05
2023-04-26T13:54:49.214Z,35.61
2023-04-26T13:57:16.536Z,36.01
2023-04-26T13:59:43.313Z,36.57
2023-04-26T14:02:10.786Z,37.19
2023-04-26T14:04:38.305Z,35.64
2023-04-26T14:07:05.917Z,35.90
2023-04-26T14:09:33.356Z,35.94
2023-04-26T14:12:07.867Z,36.69
2023-04-26T14:14:36.418Z,32.31
2023-04-26T14:17:03.729Z,30.05
2023-04-26T14:19:30.614Z,32.74
2023-04-26T14:21:57.443Z,34.85
2023-04-26T14:24:24.567Z,36.41
2023-04-26T14:26:51.526Z,37.39
2023-04-26T14:29:18.791Z,36.47
2023-04-26T14:31:46.020Z,36.73
2023-04-26T14:34:13.454Z,35.35
2023-04-26T14:36:40.377Z,29.99
2023-04-26T14:39:07.477Z,31.20
2023-04-26T14:41:34.253Z,33.60
2023-04-26T14:44:01.642Z,32.45
2023-04-26T14:46:28.697Z,33.29
2023-04-26T14:48:55.996Z,33.69
2023-04-26T14:51:22.831Z,35.58
2023-04-26T14:53:49.884Z,36.31
2023-04-26T14:56:16.723Z,32.54
2023-04-26T14:58:45.086Z,31.44
2023-04-26T15:01:11.956Z,32.05
2023-04-26T15:03:39.361Z,35.02
2023-04-26T15:06:09.627Z,35.29
2023-04-26T15:08:37.237Z,36.99
2023-04-26T15:11:04.387Z,37.72
2023-04-26T15:13:31.480Z,36.24
2023-04-26T15:15:58.892Z,37.29
2023-04-26T15:18:26.140Z,37.50
2023-04-26T15:20:53.233Z,37.54
2023-04-26T15:23:20.386Z,37.58
2023-04-26T15:25:47.277Z,39.45
2023-04-26T15:28:15.962Z,39.14
2023-04-26T15:30:44.043Z,39.46
2023-04-26T15:33:12.845Z,39.63
2023-04-26T15:35:39.934Z,40.49
2023-04-26T15:38:07.048Z,39.26
2023-04-26T15:43:00.904Z,38.14
2023-04-26T15:45:27.665Z,38.27
2023-04-26T15:47:55.257Z,38.29
2023-04-26T15:50:22.303Z,35.38
2023-04-26T15:52:49.342Z,35.54
2023-04-26T15:55:16.477Z,35.42
2023-04-26T15:57:43.639Z,35.75
2023-04-26T16:00:14.478Z,36.55
2023-04-26T16:02:44.591Z,36.57
2023-04-26T16:05:12.213Z,37.50
2023-04-26T16:07:40.232Z,37.22
2023-04-26T16:10:09.147Z,37.30
2023-04-26T16:12:39.480Z,37.41
2023-04-26T16:15:08.276Z,38.26
2023-04-26T16:17:36.039Z,37.61
2023-04-26T16:20:06.738Z,37.33
2023-04-26T16:22:35.138Z,37.49
2023-04-26T16:25:03.092Z,36.69
2023-04-26T16:27:30.346Z,38.11
2023-04-26T16:29:57.613Z,36.89
2023-04-26T16:32:26.260Z,37.15
2023-04-26T16:34:53.185Z,37.76
2023-04-26T16:37:20.306Z,38.04
2023-04-26T16:39:47.180Z,37.96
2023-04-26T16:42:14.256Z,38.74
2023-04-26T16:44:41.493Z,37.82
2023-04-26T16:47:08.579Z,38.86
2023-04-26T16:49:35.386Z,39.59
2023-04-26T16:52:02.597Z,40.25
2023-04-26T16:54:29.478Z,39.63
2023-04-26T16:56:56.890Z,40.31
2023-04-26T16:59:23.727Z,39.61
2023-04-26T17:01:52.043Z,37.54
2023-04-26T17:04:18.986Z,34.54
2023-04-26T17:06:46.311Z,32.97
2023-04-26T17:09:13.161Z,32.41
2023-04-26T17:11:43.538Z,32.04
2023-04-26T17:14:10.883Z,31.26
2023-04-26T17:16:38.017Z,31.33
2023-04-26T17:19:04.942Z,33.72
2023-04-26T17:21:32.178Z,34.66
2023-04-26T17:23:59.082Z,37.15
2023-04-26T17:26:26.509Z,37.39
2023-04-26T17:28:53.863Z,38.81
2023-04-26T17:31:21.287Z,38.83
2023-04-26T17:33:48.180Z,38.93
2023-04-26T17:36:15.938Z,39.14
2023-04-26T17:38:42.866Z,39.88
2023-04-26T17:41:12.649Z,41.03
2023-04-26T17:43:39.386Z,40.67
2023-04-26T17:46:06.573Z,40.11
2023-04-26T17:48:33.460Z,41.18
2023-04-26T17:51:00.695Z,41.75
2023-04-26T17:53:27.888Z,41.75
2023-04-26T17:55:55.316Z,42.39
2023-04-26T17:58:22.865Z,42.28
2023-04-26T18:00:50.422Z,41.09
2023-04-26T18:03:17.430Z,41.30
2023-04-26T18:05:44.718Z,41.74
2023-04-26T18:08:11.481Z,41.11
2023-04-26T18:10:38.613Z,42.24
2023-04-26T18:13:05.609Z,41.84
2023-04-26T18:15:32.724Z,43.18
2023-04-26T18:17:59.637Z,42.80
2023-04-26T18:20:27.144Z,42.06
2023-04-26T18:22:53.968Z,41.64
2023-04-26T18:25:21.110Z,41.02
2023-04-26T18:27:47.899Z,41.46
2023-04-26T18:30:15.146Z,41.92
2023-04-26T18:32:41.954Z,41.65
2023-04-26T18:35:09.649Z,42.28
2023-04-26T18:37:36.707Z,42.17
2023-04-26T18:40:07.134Z,42.03
2023-04-26T18:42:33.932Z,42.62
2023-04-26T18:45:02.133Z,43.18
2023-04-26T18:47:29.980Z,43.02
2023-04-26T18:49:57.069Z,42.50
2023-04-26T18:52:23.885Z,43.06
2023-04-26T18:54:51.090Z,43.04
2023-04-26T18:57:22.190Z,42.92
2023-04-26T18:59:49.513Z,43.25
2023-04-26T19:02:16.548Z,43.42
2023-04-26T19:04:43.872Z,43.42
2023-04-26T19:07:10.721Z,43.57
2023-04-26T19:09:50.402Z,43.46
2023-04-26T19:12:20.729Z,43.27
2023-04-26T19:14:47.867Z,44.75
2023-04-26T19:17:14.713Z,43.89
2023-04-26T19:19:41.845Z,43.83
2023-04-26T19:22:08.617Z,44.58
2023-04-26T19:24:35.937Z,44.16
2023-04-26T19:27:02.879Z,44.78
2023-04-26T19:29:30.258Z,45.58
2023-04-26T19:31:59.377Z,45.60
2023-04-26T19:34:26.769Z,45.51
2023-04-26T19:36:53.778Z,45.15
2023-04-26T19:39:23.489Z,45.61
2023-04-26T19:41:51.336Z,44.86
2023-04-26T19:44:18.489Z,45.47
2023-04-26T19:46:48.345Z,45.76
2023-04-26T19:49:15.835Z,46.28
2023-04-26T19:51:42.649Z,45.85
2023-04-26T19:54:09.700Z,45.68
2023-04-26T19:56:36.607Z,46.50
2023-04-26T19:59:04.440Z,46.96
2023-04-26T20:01:32.237Z,47.63
2023-04-26T20:03:59.568Z,48.12
2023-04-26T20:06:27.575Z,46.91
2023-04-26T20:08:54.685Z,47.51
2023-04-26T20:11:22.353Z,47.27
2023-04-26T20:13:49.435Z,48.32
2023-04-26T20:16:16.489Z,47.93
2023-04-26T20:18:43.627Z,48.03
2023-04-26T20:21:10.516Z,47.91
2023-04-26T20:23:37.821Z,50.19
2023-04-26T20:26:04.633Z,50.25
2023-04-26T20:28:31.744Z,49.74
2023-04-26T20:30:58.578Z,50.04
2023-04-26T20:33:25.603Z,50.92
2023-04-26T20:35:53.277Z,50.50
2023-04-26T20:38:21.190Z,49.84
2023-04-26T20:40:48.771Z,50.95
2023-04-26T20:43:16.219Z,50.75
2023-04-26T20:45:43.063Z,50.86
2023-04-26T20:48:10.674Z,51.27
2023-04-26T20:50:37.535Z,51.38
2023-04-26T20:53:04.771Z,51.29
2023-04-26T20:55:31.536Z,51.87
2023-04-26T20:57:58.738Z,54.34
2023-04-26T21:00:25.670Z,53.21
2023-04-26T21:02:52.914Z,53.85
2023-04-26T21:05:19.895Z,55.15
2023-04-26T21:07:46.937Z,56.44
2023-04-26T21:10:13.728Z,57.11
2023-04-26T21:12:41.962Z,57.71
2023-04-26T21:15:09.118Z,60.01
2023-04-26T21:17:36.376Z,59.90
2023-04-26T21:20:04.214Z,61.17
2023-04-26T21:22:31.320Z,62.30
2023-04-26T21:24:58.150Z,60.22
2023-04-26T21:27:25.497Z,60.64
2023-04-26T21:29:52.266Z,61.42
2023-04-26T21:32:19.368Z,62.46
2023-04-26T21:34:46.193Z,63.81
2023-04-26T21:37:13.418Z,62.07
2023-04-26T21:39:40.321Z,62.39
2023-04-26T21:42:07.546Z,63.12
2023-04-26T21:44:34.420Z,64.32
2023-04-26T21:47:01.527Z,63.83
2023-04-26T21:49:28.428Z,63.57
2023-04-26T21:51:55.496Z,64.41
2023-04-26T21:54:22.543Z,65.64
2023-04-26T21:56:49.632Z,67.03
2023-04-26T21:59:19.729Z,68.34
2023-04-26T22:01:46.948Z,67.65
2023-04-26T22:04:13.942Z,67.11
2023-04-26T22:06:41.227Z,65.94
2023-04-26T22:09:10.409Z,67.00
2023-04-26T22:11:37.736Z,67.40
2023-04-26T22:14:04.553Z,70.65
2023-04-26T22:16:32.097Z,71.55
2023-04-26T22:19:01.074Z,70.61
2023-04-26T22:21:28.456Z,70.23
2023-04-26T22:23:55.474Z,70.65
2023-04-26T22:26:22.768Z,70.62
2023-04-26T22:28:49.561Z,70.90
2023-04-26T22:31:17.137Z,67.56
2023-04-26T22:33:43.928Z,66.26
2023-04-26T22:36:11.021Z,69.25
2023-04-26T22:38:37.803Z,67.41
2023-04-26T22:41:07.279Z,67.70
2023-04-26T22:43:34.763Z,66.29
2023-04-26T22:46:02.205Z,70.88
2023-04-26T22:48:29.129Z,71.65
2023-04-26T22:50:56.248Z,72.81
2023-04-26T22:53:23.059Z,72.62
2023-04-26T22:55:51.818Z,74.10
2023-04-26T22:58:18.976Z,76.07
2023-04-26T23:00:46.099Z,77.28
2023-04-26T23:03:13.022Z,76.32
2023-04-26T23:05:40.290Z,78.70
2023-04-26T23:08:07.152Z,79.65
2023-04-26T23:10:34.239Z,80.25
2023-04-26T23:13:01.006Z,80.98
2023-04-26T23:15:28.149Z,78.53
2023-04-26T23:17:55.036Z,79.58
2023-04-26T23:20:22.772Z,81.28
2023-04-26T23:22:49.661Z,82.68
2023-04-26T23:25:16.815Z,83.41
2023-04-26T23:27:43.582Z,82.84
2023-04-26T23:30:11.082Z,82.38
2023-04-26T23:32:37.905Z,80.67
2023-04-26T23:35:05.599Z,79.13
2023-04-26T23:37:32.809Z,77.80
2023-04-26T23:40:00.015Z,78.96
2023-04-26T23:42:26.744Z,79.16
2023-04-26T23:44:53.811Z,78.42
2023-04-26T23:47:21.171Z,79.95
2023-04-26T23:49:48.211Z,80.92
2023-04-26T23:52:14.957Z,85.12
2023-04-26T23:54:42.033Z,84.80
2023-04-26T23:57:09.211Z,81.90
2023-04-26T23:59:36.281Z,83.05
